Wetterdaten: Woche 10.06.19 - 16.06.19 (KW24)
Datum Zeit Temp. Aussen Temp. o. S. +5cm Feuchte Auss Luftdruck Regen Sonnenschein Regendauer Solar Windben Empfang
10.06.2019 00:00 17,0 C 15,7 C 14,9 C 67 % 1017,0 hPa 0,0 l/m 0,00 h 0,00 h 0 W/m 5,1 km/h (1 Bft) 99,01 %
10.06.2019 01:00 16,2 C 14,8 C 14,0 C 69 % 1016,4 hPa 0,0 l/m 0,00 h 0,00 h 0 W/m 3,7 km/h (1 Bft) 98,01 %
10.06.2019 02:00 15,6 C 14,2 C 13,4 C 70 % 1015,6 hPa 0,0 l/m 0,00 h 0,00 h 0 W/m 0,7 km/h (0 Bft) 94,88 %
10.06.2019 03:00 14,9 C 13,8 C 12,8 C 73 % 1015,1 hPa 0,0 l/m 0,00 h 0,00 h 0 W/m 0,6 km/h (0 Bft) 99,57 %
10.06.2019 04:00 14,5 C 12,8 C 12,3 C 76 % 1014,3 hPa 0,0 l/m 0,00 h 0,00 h 0 W/m 0,0 km/h (0 Bft) 97,01 %
10.06.2019 05:00 13,9 C 12,8 C 12,2 C 79 % 1014,1 hPa 0,0 l/m 0,00 h 0,00 h 11 W/m 0,0 km/h (0 Bft) 97,95 %
10.06.2019 06:00 13,7 C 13,3 C 12,6 C 82 % 1013,9 hPa 0,0 l/m 0,00 h 0,00 h 12 W/m 0,0 km/h (0 Bft) 97,49 %
10.06.2019 07:00 14,4 C 15,3 C 14,3 C 84 % 1013,7 hPa 0,0 l/m 0,00 h 0,00 h 89 W/m 1,3 km/h (1 Bft) 96,01 %
10.06.2019 08:00 15,8 C 17,0 C 16,0 C 83 % 1013,5 hPa 0,0 l/m 0,00 h 0,00 h 149 W/m 3,8 km/h (1 Bft) 98,98 %
10.06.2019 09:00 17,9 C 21,9 C 21,3 C 79 % 1013,4 hPa 0,0 l/m 0,63 h 0,00 h 343 W/m 5,3 km/h (1 Bft) 97,22 %
10.06.2019 10:00 20,1 C 24,0 C 23,5 C 72 % 1013,0 hPa 0,0 l/m 0,83 h 0,00 h 485 W/m 7,8 km/h (2 Bft) 97,36 %
10.06.2019 11:00 22,1 C 27,7 C 27,3 C 67 % 1012,5 hPa 0,0 l/m 0,93 h 0,00 h 655 W/m 7,4 km/h (2 Bft) 97,65 %
10.06.2019 12:00 23,4 C 27,0 C 26,3 C 64 % 1012,1 hPa 0,0 l/m 0,93 h 0,00 h 608 W/m 9,7 km/h (2 Bft) 96,03 %
10.06.2019 13:00 24,1 C 28,0 C 28,3 C 64 % 1011,5 hPa 0,0 l/m 1,00 h 0,00 h 701 W/m 8,7 km/h (2 Bft) 99,50 %
10.06.2019 14:00 24,1 C 24,1 C 23,6 C 62 % 1011,0 hPa 0,0 l/m 0,03 h 0,00 h 254 W/m 7,2 km/h (2 Bft) 96,87 %
10.06.2019 15:00 23,5 C 25,0 C 23,2 C 64 % 1010,4 hPa 0,0 l/m 0,63 h 0,07 h 485 W/m 7,8 km/h (2 Bft) 96,15 %
10.06.2019 16:00 24,9 C 25,5 C 23,5 C 61 % 1009,9 hPa 0,0 l/m 0,50 h 0,00 h 388 W/m 6,0 km/h (2 Bft) 99,57 %
10.06.2019 17:00 24,2 C 23,4 C 22,1 C 66 % 1009,4 hPa 0,0 l/m 0,00 h 0,00 h 127 W/m 3,0 km/h (1 Bft) 96,94 %
10.06.2019 18:00 22,2 C 19,7 C 19,5 C 70 % 1009,6 hPa 0,0 l/m 0,00 h 0,27 h 18 W/m 10,7 km/h (2 Bft) 97,05 %
10.06.2019 19:00 18,4 C 16,4 C 15,6 C 84 % 1009,9 hPa 0,0 l/m 0,00 h 0,13 h 44 W/m 5,8 km/h (2 Bft) 98,65 %
10.06.2019 20:00 17,6 C 16,5 C 16,1 C 91 % 1009,6 hPa 0,0 l/m 0,00 h 0,00 h 35 W/m 2,0 km/h (1 Bft) 96,51 %
10.06.2019 21:00 17,3 C 15,9 C 15,7 C 92 % 1010,4 hPa 0,2 l/m 0,00 h 0,67 h 4 W/m 10,5 km/h (2 Bft) 98,79 %
10.06.2019 22:00 16,4 C 14,5 C 14,5 C 94 % 1010,4 hPa 0,4 l/m 0,00 h 0,47 h 0 W/m 4,9 km/h (1 Bft) 97,94 %
10.06.2019 23:00 15,8 C 14,2 C 14,0 C 95 % 1010,7 hPa 0,0 l/m 0,00 h 0,00 h 0 W/m 0,0 km/h (0 Bft) 95,73 %
11.06.2019 00:00 15,5 C 14,2 C 13,9 C 95 % 1010,8 hPa 0,0 l/m 0,00 h 0,00 h 0 W/m 0,6 km/h (0 Bft) 98,97 %
11.06.2019 01:00 15,4 C 14,3 C 13,9 C 96 % 1011,1 hPa 0,0 l/m 0,00 h 0,00 h 0 W/m 2,6 km/h (1 Bft) 98,71 %
11.06.2019 02:00 15,1 C 13,9 C 13,9 C 96 % 1011,1 hPa 0,0 l/m 0,00 h 0,00 h 0 W/m 3,1 km/h (1 Bft) 94,80 %
11.06.2019 03:00 14,9 C 13,9 C 13,7 C 96 % 1011,2 hPa 0,0 l/m 0,00 h 0,10 h 0 W/m 6,0 km/h (2 Bft) 99,00 %
11.06.2019 04:00 14,4 C 13,0 C 12,9 C 96 % 1011,1 hPa 0,2 l/m 0,00 h 0,97 h 0 W/m 9,5 km/h (2 Bft) 98,29 %
11.06.2019 05:00 13,8 C 12,3 C 12,2 C 96 % 1011,2 hPa 0,4 l/m 0,00 h 0,50 h 7 W/m 6,4 km/h (2 Bft) 96,05 %
11.06.2019 06:00 13,0 C 11,8 C 11,7 C 96 % 1011,9 hPa 0,0 l/m 0,00 h 0,00 h 21 W/m 9,0 km/h (2 Bft) 97,83 %
11.06.2019 07:00 12,6 C 11,7 C 11,7 C 95 % 1012,2 hPa 0,0 l/m 0,00 h 0,03 h 60 W/m 6,3 km/h (2 Bft) 97,64 %
11.06.2019 08:00 12,8 C 12,6 C 12,2 C 94 % 1012,2 hPa 0,0 l/m 0,00 h 0,00 h 127 W/m 5,6 km/h (1 Bft) 97,31 %
11.06.2019 09:00 13,3 C 13,9 C 12,9 C 91 % 1012,4 hPa 0,0 l/m 0,00 h 0,00 h 184 W/m 6,0 km/h (2 Bft) 96,93 %
11.06.2019 10:00 15,6 C 23,3 C 22,6 C 85 % 1012,2 hPa 0,0 l/m 0,73 h 0,00 h 646 W/m 4,7 km/h (1 Bft) 98,72 %
11.06.2019 11:00 18,6 C 25,5 C 25,0 C 73 % 1012,3 hPa 0,0 l/m 0,77 h 0,00 h 781 W/m 6,5 km/h (2 Bft) 99,22 %
11.06.2019 12:00 19,7 C 25,0 C 25,0 C 69 % 1012,2 hPa 0,0 l/m 0,65 h 0,00 h 612 W/m 8,1 km/h (2 Bft) 95,24 %
11.06.2019 13:00 21,3 C 27,2 C 28,6 C 63 % 1012,5 hPa 0,0 l/m 0,87 h 0,00 h 925 W/m 9,9 km/h (2 Bft) 97,29 %
11.06.2019 14:00 23,0 C 28,4 C 29,5 C 58 % 1012,3 hPa 0,0 l/m 1,00 h 0,00 h 964 W/m 8,7 km/h (2 Bft) 98,43 %
11.06.2019 15:00 23,6 C 26,2 C 22,2 C 55 % 1012,1 hPa 0,0 l/m 0,83 h 0,00 h 763 W/m 8,9 km/h (2 Bft) 97,08 %
11.06.2019 16:00 23,3 C 23,7 C 21,7 C 56 % 1012,0 hPa 0,0 l/m 0,90 h 0,00 h 547 W/m 9,6 km/h (2 Bft) 98,08 %
11.06.2019 17:00 22,4 C 22,2 C 20,7 C 57 % 1011,7 hPa 0,0 l/m 0,57 h 0,00 h 386 W/m 7,1 km/h (2 Bft) 97,08 %
11.06.2019 18:00 21,7 C 20,9 C 20,0 C 58 % 1011,9 hPa 0,0 l/m 0,10 h 0,00 h 143 W/m 4,2 km/h (1 Bft) 97,61 %
11.06.2019 19:00 20,4 C 19,5 C 18,7 C 63 % 1011,5 hPa 0,0 l/m 0,03 h 0,00 h 107 W/m 4,9 km/h (1 Bft) 98,15 %
11.06.2019 20:00 19,5 C 18,3 C 17,5 C 68 % 1011,8 hPa 0,0 l/m 0,00 h 0,00 h 30 W/m 2,1 km/h (1 Bft) 97,15 %
11.06.2019 21:00 18,6 C 17,1 C 16,7 C 69 % 1011,7 hPa 0,0 l/m 0,00 h 0,00 h 7 W/m 3,6 km/h (1 Bft) 97,87 %
11.06.2019 22:00 17,9 C 16,8 C 16,2 C 70 % 1011,5 hPa 0,0 l/m 0,00 h 0,00 h 0 W/m 4,8 km/h (1 Bft) 96,30 %
11.06.2019 23:00 17,5 C 16,2 C 15,7 C 72 % 1011,0 hPa 0,0 l/m 0,00 h 0,00 h 0 W/m 5,1 km/h (1 Bft) 97,94 %
12.06.2019 00:00 16,8 C 15,5 C 14,9 C 74 % 1010,5 hPa 0,0 l/m 0,00 h 0,00 h 0 W/m 3,3 km/h (1 Bft) 99,36 %
12.06.2019 01:00 16,4 C 15,6 C 15,0 C 75 % 1010,8 hPa 0,0 l/m 0,00 h 0,00 h 0 W/m 5,0 km/h (1 Bft) 94,59 %
12.06.2019 02:00 16,4 C 15,6 C 15,0 C 75 % 1010,5 hPa 0,0 l/m 0,00 h 0,00 h 0 W/m 4,3 km/h (1 Bft) 98,51 %
12.06.2019 03:00 16,2 C 15,2 C 14,8 C 78 % 1010,2 hPa 0,0 l/m 0,00 h 0,10 h 0 W/m 4,4 km/h (1 Bft) 99,07 %
12.06.2019 04:00 15,8 C 14,4 C 14,0 C 83 % 1009,4 hPa 0,0 l/m 0,00 h 0,10 h 0 W/m 4,5 km/h (1 Bft) 95,10 %
12.06.2019 05:00 15,6 C 15,0 C 14,4 C 84 % 1008,8 hPa 0,0 l/m 0,00 h 0,00 h 10 W/m 1,9 km/h (1 Bft) 98,22 %
12.06.2019 06:00 15,7 C 14,8 C 14,2 C 85 % 1008,3 hPa 0,0 l/m 0,00 h 0,13 h 25 W/m 0,1 km/h (0 Bft) 98,68 %
12.06.2019 07:00 15,9 C 16,8 C 15,6 C 87 % 1007,9 hPa 0,0 l/m 0,03 h 0,00 h 100 W/m 2,7 km/h (1 Bft) 96,82 %
12.06.2019 08:00 17,7 C 21,4 C 19,9 C 86 % 1007,6 hPa 0,0 l/m 0,03 h 0,00 h 155 W/m 6,0 km/h (2 Bft) 97,79 %
12.06.2019 09:00 20,7 C 26,7 C 27,5 C 78 % 1007,1 hPa 0,0 l/m 0,92 h 0,00 h 479 W/m 6,9 km/h (2 Bft) 97,56 %
12.06.2019 10:00 21,8 C 21,6 C 21,6 C 73 % 1007,2 hPa 0,0 l/m 0,17 h 0,00 h 176 W/m 8,2 km/h (2 Bft) 97,58 %
12.06.2019 11:00 17,6 C 14,9 C 14,8 C 84 % 1007,8 hPa 1,0 l/m 0,00 h 0,60 h 38 W/m 18,5 km/h (3 Bft) 96,60 %
12.06.2019 12:00 14,7 C 13,2 C 13,0 C 94 % 1009,0 hPa 3,8 l/m 0,00 h 1,00 h 52 W/m 20,2 km/h (4 Bft) 97,27 %
12.06.2019 13:00 15,0 C 15,0 C 14,4 C 96 % 1008,9 hPa 0,2 l/m 0,07 h 0,77 h 282 W/m 13,6 km/h (3 Bft) 98,31 %
12.06.2019 14:00 16,7 C 19,8 C 18,0 C 90 % 1009,2 hPa 0,0 l/m 0,70 h 0,13 h 671 W/m 17,3 km/h (3 Bft) 95,66 %
12.06.2019 15:00 18,2 C 19,1 C 17,6 C 80 % 1009,2 hPa 0,0 l/m 0,37 h 0,00 h 422 W/m 22,2 km/h (4 Bft) 98,86 %
12.06.2019 16:00 19,0 C 19,5 C 18,4 C 74 % 1009,5 hPa 0,0 l/m 0,37 h 0,00 h 425 W/m 22,1 km/h (4 Bft) 99,43 %
12.06.2019 17:00 20,2 C 19,9 C 19,1 C 67 % 1009,4 hPa 0,0 l/m 0,58 h 0,00 h 518 W/m 22,3 km/h (4 Bft) 98,03 %
12.06.2019 18:00 19,8 C 19,0 C 18,2 C 64 % 1009,4 hPa 0,0 l/m 0,42 h 0,00 h 247 W/m 20,1 km/h (4 Bft) 99,78 %
12.06.2019 19:00 20,5 C 19,8 C 18,8 C 61 % 1009,2 hPa 0,0 l/m 0,67 h 0,00 h 215 W/m 18,5 km/h (3 Bft) 99,93 %
12.06.2019 20:00 19,6 C 18,5 C 17,9 C 60 % 1009,6 hPa 0,0 l/m 0,00 h 0,00 h 25 W/m 18,6 km/h (3 Bft) 96,33 %
12.06.2019 21:00 18,7 C 17,3 C 16,8 C 63 % 1010,1 hPa 0,0 l/m 0,00 h 0,00 h 10 W/m 11,2 km/h (2 Bft) 99,00 %
12.06.2019 22:00 17,3 C 15,8 C 15,4 C 67 % 1010,6 hPa 0,0 l/m 0,00 h 0,00 h 0 W/m 9,9 km/h (2 Bft) 97,15 %
12.06.2019 23:00 16,2 C 14,5 C 13,9 C 71 % 1010,9 hPa 0,0 l/m 0,00 h 0,00 h 0 W/m 5,3 km/h (1 Bft) 97,08 %
13.06.2019 00:00 15,0 C 13,8 C 13,2 C 76 % 1011,1 hPa 0,0 l/m 0,00 h 0,00 h 0 W/m 7,2 km/h (2 Bft) 97,48 %
13.06.2019 01:00 14,2 C 12,9 C 12,4 C 78 % 1011,0 hPa 0,0 l/m 0,00 h 0,00 h 0 W/m 5,1 km/h (1 Bft) 96,37 %
13.06.2019 02:00 13,6 C 12,4 C 12,0 C 82 % 1011,2 hPa 0,0 l/m 0,00 h 0,00 h 0 W/m 5,3 km/h (1 Bft) 99,00 %
13.06.2019 03:00 12,8 C 11,8 C 11,4 C 84 % 1011,3 hPa 0,0 l/m 0,00 h 0,00 h 0 W/m 6,6 km/h (2 Bft) 99,07 %
13.06.2019 04:00 12,8 C 12,2 C 12,0 C 85 % 1011,1 hPa 0,0 l/m 0,00 h 0,00 h 0 W/m 11,1 km/h (2 Bft) 94,30 %
13.06.2019 05:00 13,0 C 12,3 C 12,0 C 85 % 1011,3 hPa 0,0 l/m 0,00 h 0,00 h 12 W/m 11,4 km/h (2 Bft) 99,57 %
13.06.2019 06:00 13,2 C 13,0 C 12,4 C 84 % 1011,7 hPa 0,0 l/m 0,00 h 0,00 h 44 W/m 14,4 km/h (3 Bft) 98,09 %
13.06.2019 07:00 13,8 C 13,8 C 13,0 C 82 % 1012,3 hPa 0,0 l/m 0,00 h 0,00 h 55 W/m 17,3 km/h (3 Bft) 96,15 %
13.06.2019 08:00 15,8 C 19,5 C 17,6 C 74 % 1012,5 hPa 0,0 l/m 0,00 h 0,00 h 51 W/m 22,0 km/h (4 Bft) 99,00 %
13.06.2019 09:00 17,9 C 21,3 C 21,8 C 66 % 1012,6 hPa 0,0 l/m 0,93 h 0,00 h 520 W/m 29,1 km/h (5 Bft) 97,87 %
13.06.2019 10:00 18,8 C 21,2 C 21,2 C 62 % 1012,6 hPa 0,0 l/m 0,87 h 0,00 h 554 W/m 27,2 km/h (4 Bft) 96,94 %
13.06.2019 11:00 19,2 C 21,8 C 21,6 C 61 % 1012,8 hPa 0,0 l/m 0,70 h 0,00 h 646 W/m 25,8 km/h (4 Bft) 96,34 %
13.06.2019 12:00 20,2 C 22,8 C 22,9 C 56 % 1012,8 hPa 0,0 l/m 0,63 h 0,00 h 608 W/m 28,1 km/h (4 Bft) 99,04 %
13.06.2019 13:00 20,6 C 21,5 C 21,5 C 56 % 1012,6 hPa 0,0 l/m 0,23 h 0,00 h 391 W/m 25,1 km/h (4 Bft) 98,13 %
13.06.2019 14:00 20,2 C 20,9 C 20,7 C 57 % 1012,6 hPa 0,0 l/m 0,10 h 0,00 h 362 W/m 20,3 km/h (4 Bft) 95,43 %
13.06.2019 15:00 21,1 C 22,3 C 21,0 C 54 % 1012,3 hPa 0,0 l/m 0,40 h 0,00 h 516 W/m 20,8 km/h (4 Bft) 98,51 %
13.06.2019 16:00 20,9 C 19,6 C 19,3 C 56 % 1012,2 hPa 0,0 l/m 0,17 h 0,13 h 223 W/m 22,1 km/h (4 Bft) 97,65 %
13.06.2019 17:00 20,0 C 18,4 C 17,6 C 61 % 1012,3 hPa 0,2 l/m 0,57 h 0,17 h 417 W/m 17,0 km/h (3 Bft) 97,21 %
13.06.2019 18:00 20,2 C 19,8 C 18,9 C 62 % 1012,1 hPa 0,0 l/m 0,90 h 0,00 h 415 W/m 15,1 km/h (3 Bft) 97,72 %
13.06.2019 19:00 21,1 C 20,1 C 19,2 C 59 % 1012,1 hPa 0,0 l/m 0,17 h 0,00 h 103 W/m 17,6 km/h (3 Bft) 96,95 %
13.06.2019 20:00 19,7 C 18,7 C 18,0 C 59 % 1012,5 hPa 0,0 l/m 0,30 h 0,00 h 82 W/m 19,4 km/h (3 Bft) 98,32 %
13.06.2019 21:00 18,1 C 16,3 C 16,1 C 68 % 1013,1 hPa 0,0 l/m 0,00 h 0,00 h 14 W/m 14,8 km/h (3 Bft) 97,95 %
13.06.2019 22:00 16,6 C 15,5 C 15,0 C 76 % 1013,5 hPa 0,0 l/m 0,00 h 0,03 h 0 W/m 14,2 km/h (3 Bft) 97,70 %
13.06.2019 23:00 16,3 C 15,6 C 15,0 C 77 % 1014,1 hPa 0,0 l/m 0,00 h 0,07 h 0 W/m 8,0 km/h (2 Bft) 96,58 %
14.06.2019 00:00 16,1 C 13,1 C 13,1 C 83 % 1014,6 hPa 1,8 l/m 0,00 h 0,73 h 0 W/m 0,8 km/h (0 Bft) 94,45 %
14.06.2019 01:00 14,6 C 12,2 C 12,0 C 88 % 1014,3 hPa 0,0 l/m 0,00 h 0,03 h 0 W/m 2,1 km/h (1 Bft) 98,22 %
14.06.2019 02:00 13,6 C 11,5 C 11,2 C 91 % 1014,0 hPa 0,0 l/m 0,00 h 0,00 h 0 W/m 1,1 km/h (0 Bft) 97,94 %
14.06.2019 03:00 12,5 C 10,3 C 10,2 C 91 % 1013,6 hPa 0,2 l/m 0,00 h 0,00 h 0 W/m 0,3 km/h (0 Bft) 94,83 %
14.06.2019 04:00 12,2 C 11,1 C 10,6 C 94 % 1013,5 hPa 0,0 l/m 0,00 h 0,00 h 0 W/m 1,1 km/h (0 Bft) 96,65 %
14.06.2019 05:00 12,1 C 11,1 C 10,6 C 95 % 1013,6 hPa 0,0 l/m 0,00 h 0,00 h 12 W/m 0,0 km/h (0 Bft) 99,00 %
14.06.2019 06:00 12,2 C 11,6 C 10,8 C 96 % 1013,6 hPa 0,0 l/m 0,00 h 0,00 h 27 W/m 1,5 km/h (1 Bft) 98,24 %
14.06.2019 07:00 12,8 C 13,3 C 12,0 C 97 % 1013,8 hPa 0,0 l/m 0,00 h 0,00 h 53 W/m 2,9 km/h (1 Bft) 95,13 %
14.06.2019 08:00 15,4 C 19,9 C 16,4 C 92 % 1014,3 hPa 0,0 l/m 0,00 h 0,00 h 143 W/m 7,7 km/h (2 Bft) 99,64 %
14.06.2019 09:00 18,1 C 22,0 C 21,4 C 79 % 1014,7 hPa 0,0 l/m 0,57 h 0,00 h 371 W/m 11,1 km/h (2 Bft) 98,08 %
14.06.2019 10:00 20,1 C 22,7 C 22,0 C 73 % 1015,0 hPa 0,0 l/m 0,53 h 0,00 h 411 W/m 10,3 km/h (2 Bft) 97,65 %
14.06.2019 11:00 20,9 C 24,0 C 23,1 C 71 % 1014,7 hPa 0,0 l/m 0,40 h 0,00 h 434 W/m 8,0 km/h (2 Bft) 95,33 %
14.06.2019 12:00 22,0 C 27,2 C 27,6 C 64 % 1015,5 hPa 0,0 l/m 0,53 h 0,00 h 697 W/m 12,4 km/h (3 Bft) 98,02 %
14.06.2019 13:00 24,6 C 30,7 C 33,4 C 54 % 1015,2 hPa 0,0 l/m 1,00 h 0,00 h 966 W/m 9,8 km/h (2 Bft) 98,01 %
14.06.2019 14:00 26,2 C 31,2 C 33,7 C 50 % 1014,7 hPa 0,0 l/m 1,00 h 0,00 h 951 W/m 8,4 km/h (2 Bft) 96,57 %
14.06.2019 15:00 27,7 C 30,8 C 26,0 C 51 % 1014,2 hPa 0,0 l/m 1,00 h 0,00 h 866 W/m 7,2 km/h (2 Bft) 98,79 %
14.06.2019 16:00 27,8 C 27,9 C 25,9 C 50 % 1013,6 hPa 0,0 l/m 1,00 h 0,00 h 712 W/m 7,6 km/h (2 Bft) 98,65 %
14.06.2019 17:00 28,6 C 28,2 C 25,8 C 51 % 1013,0 hPa 0,0 l/m 0,93 h 0,00 h 586 W/m 7,0 km/h (2 Bft) 94,59 %
14.06.2019 18:00 27,8 C 26,6 C 24,3 C 53 % 1012,6 hPa 0,0 l/m 0,77 h 0,00 h 326 W/m 5,0 km/h (1 Bft) 99,34 %
14.06.2019 19:00 26,9 C 26,1 C 23,1 C 56 % 1012,4 hPa 0,0 l/m 0,67 h 0,00 h 228 W/m 5,0 km/h (1 Bft) 98,38 %
14.06.2019 20:00 25,2 C 23,5 C 21,8 C 59 % 1012,1 hPa 0,0 l/m 0,07 h 0,00 h 71 W/m 4,3 km/h (1 Bft) 96,05 %
14.06.2019 21:00 23,6 C 21,8 C 20,6 C 61 % 1011,9 hPa 0,0 l/m 0,00 h 0,00 h 16 W/m 5,5 km/h (1 Bft) 98,25 %
14.06.2019 22:00 22,4 C 20,8 C 19,7 C 64 % 1011,9 hPa 0,0 l/m 0,00 h 0,00 h 0 W/m 4,8 km/h (1 Bft) 97,97 %
14.06.2019 23:00 21,6 C 19,5 C 18,7 C 69 % 1011,6 hPa 0,0 l/m 0,00 h 0,30 h 0 W/m 2,2 km/h (1 Bft) 97,15 %
15.06.2019 00:00 20,8 C 17,1 C 16,8 C 77 % 1012,0 hPa 0,2 l/m 0,00 h 0,80 h 0 W/m 1,4 km/h (1 Bft) 97,50 %
15.06.2019 01:00 19,7 C 16,7 C 16,5 C 85 % 1011,2 hPa 0,4 l/m 0,00 h 0,27 h 0 W/m 0,0 km/h (0 Bft) 97,51 %
15.06.2019 02:00 18,7 C 16,6 C 16,1 C 89 % 1010,3 hPa 2,4 l/m 0,00 h 0,80 h 0 W/m 0,2 km/h (0 Bft) 98,22 %
15.06.2019 03:00 18,0 C 16,1 C 16,0 C 92 % 1009,5 hPa 0,2 l/m 0,00 h 0,17 h 0 W/m 0,0 km/h (0 Bft) 98,29 %
15.06.2019 04:00 17,6 C 16,1 C 16,0 C 94 % 1009,6 hPa 0,4 l/m 0,00 h 0,33 h 0 W/m 0,0 km/h (0 Bft) 95,54 %
15.06.2019 05:00 17,2 C 15,6 C 15,6 C 95 % 1009,1 hPa 0,4 l/m 0,00 h 0,30 h 5 W/m 3,6 km/h (1 Bft) 98,93 %
15.06.2019 06:00 16,6 C 15,2 C 15,0 C 96 % 1010,1 hPa 0,4 l/m 0,00 h 0,57 h 7 W/m 5,1 km/h (1 Bft) 98,60 %
15.06.2019 07:00 16,5 C 15,5 C 15,1 C 97 % 1010,3 hPa 1,6 l/m 0,00 h 0,93 h 23 W/m 2,6 km/h (1 Bft) 95,44 %
15.06.2019 08:00 17,0 C 16,5 C 16,0 C 98 % 1010,7 hPa 0,4 l/m 0,00 h 0,40 h 109 W/m 1,5 km/h (1 Bft) 98,72 %
15.06.2019 09:00 18,2 C 19,2 C 18,2 C 98 % 1010,9 hPa 0,0 l/m 0,40 h 0,00 h 252 W/m 6,0 km/h (2 Bft) 98,22 %
15.06.2019 10:00 18,0 C 17,0 C 16,2 C 95 % 1012,4 hPa 0,0 l/m 0,00 h 0,07 h 87 W/m 17,1 km/h (3 Bft) 96,94 %
15.06.2019 11:00 18,1 C 20,9 C 19,8 C 93 % 1015,0 hPa 0,0 l/m 0,47 h 0,20 h 501 W/m 14,7 km/h (3 Bft) 96,79 %
15.06.2019 12:00 21,7 C 27,1 C 27,7 C 78 % 1016,8 hPa 0,0 l/m 1,00 h 0,00 h 964 W/m 14,6 km/h (3 Bft) 99,23 %
15.06.2019 13:00 21,9 C 23,4 C 22,6 C 72 % 1017,9 hPa 0,0 l/m 0,27 h 0,00 h 380 W/m 12,7 km/h (3 Bft) 98,01 %
15.06.2019 14:00 22,1 C 24,8 C 23,9 C 74 % 1018,1 hPa 0,0 l/m 0,40 h 0,00 h 521 W/m 9,6 km/h (2 Bft) 96,37 %
15.06.2019 15:00 23,3 C 24,9 C 22,7 C 70 % 1017,5 hPa 0,0 l/m 0,70 h 0,00 h 671 W/m 11,9 km/h (2 Bft) 98,22 %
15.06.2019 16:00 23,5 C 23,7 C 22,7 C 69 % 1017,1 hPa 0,0 l/m 0,77 h 0,00 h 667 W/m 11,3 km/h (2 Bft) 97,01 %
15.06.2019 17:00 23,6 C 23,1 C 21,9 C 63 % 1016,7 hPa 0,0 l/m 0,43 h 0,00 h 374 W/m 10,8 km/h (2 Bft) 98,22 %
15.06.2019 18:00 23,9 C 23,3 C 21,5 C 59 % 1016,0 hPa 0,0 l/m 0,60 h 0,00 h 317 W/m 7,2 km/h (2 Bft) 97,42 %
15.06.2019 19:00 22,5 C 21,6 C 20,0 C 64 % 1015,5 hPa 0,0 l/m 0,07 h 0,00 h 107 W/m 4,7 km/h (1 Bft) 96,65 %
15.06.2019 20:00 21,7 C 20,2 C 18,8 C 67 % 1015,2 hPa 0,0 l/m 0,03 h 0,00 h 47 W/m 1,5 km/h (1 Bft) 98,93 %
15.06.2019 21:00 20,1 C 17,6 C 16,4 C 70 % 1015,2 hPa 0,0 l/m 0,00 h 0,00 h 10 W/m 0,9 km/h (0 Bft) 96,80 %
15.06.2019 22:00 18,3 C 15,4 C 14,6 C 77 % 1015,4 hPa 0,0 l/m 0,00 h 0,00 h 0 W/m 0,4 km/h (0 Bft) 97,65 %
15.06.2019 23:00 16,9 C 15,2 C 14,6 C 82 % 1016,0 hPa 0,0 l/m 0,00 h 0,00 h 0 W/m 0,7 km/h (0 Bft) 96,37 %
16.06.2019 00:00 16,3 C 15,2 C 14,7 C 86 % 1016,6 hPa 0,0 l/m 0,00 h 0,00 h 0 W/m 0,0 km/h (0 Bft) 95,19 %
16.06.2019 01:00 16,2 C 15,6 C 15,0 C 87 % 1017,0 hPa 0,0 l/m 0,00 h 0,00 h 0 W/m 0,0 km/h (0 Bft) 98,01 %
16.06.2019 02:00 16,3 C 15,1 C 14,6 C 88 % 1017,1 hPa 0,0 l/m 0,00 h 0,00 h 0 W/m 0,0 km/h (0 Bft) 97,51 %
16.06.2019 03:00 15,7 C 14,2 C 13,4 C 88 % 1017,3 hPa 0,0 l/m 0,00 h 0,00 h 0 W/m 0,0 km/h (0 Bft) 96,72 %
16.06.2019 04:00 15,1 C 14,0 C 13,3 C 90 % 1017,4 hPa 0,0 l/m 0,00 h 0,00 h 0 W/m 0,0 km/h (0 Bft) 97,07 %
16.06.2019 05:00 14,8 C 13,9 C 13,9 C 92 % 1018,0 hPa 0,0 l/m 0,00 h 0,00 h 6 W/m 3,3 km/h (1 Bft) 98,79 %
16.06.2019 06:00 14,6 C 14,0 C 13,9 C 89 % 1018,4 hPa 0,0 l/m 0,00 h 0,00 h 20 W/m 9,0 km/h (2 Bft) 96,88 %
16.06.2019 07:00 15,2 C 15,7 C 14,9 C 87 % 1018,5 hPa 0,0 l/m 0,00 h 0,00 h 39 W/m 10,0 km/h (2 Bft) 96,02 %
16.06.2019 08:00 17,8 C 22,7 C 19,9 C 78 % 1018,7 hPa 0,0 l/m 0,00 h 0,00 h 50 W/m 12,1 km/h (2 Bft) 99,71 %
16.06.2019 09:00 20,4 C 25,6 C 26,0 C 70 % 1019,2 hPa 0,0 l/m 0,90 h 0,00 h 528 W/m 12,6 km/h (3 Bft) 97,37 %
16.06.2019 10:00 21,4 C 26,2 C 26,6 C 67 % 1019,6 hPa 0,0 l/m 0,93 h 0,00 h 672 W/m 16,4 km/h (3 Bft) 98,28 %
16.06.2019 11:00 22,3 C 26,8 C 27,4 C 65 % 1019,9 hPa 0,0 l/m 0,90 h 0,00 h 843 W/m 17,4 km/h (3 Bft) 96,22 %
16.06.2019 12:00 22,5 C 25,2 C 25,5 C 62 % 1020,3 hPa 0,0 l/m 0,60 h 0,00 h 674 W/m 22,5 km/h (4 Bft) 97,44 %
16.06.2019 13:00 22,8 C 26,3 C 27,4 C 63 % 1020,2 hPa 0,0 l/m 0,73 h 0,00 h 733 W/m 14,8 km/h (3 Bft) 97,94 %
16.06.2019 14:00 24,0 C 27,3 C 28,8 C 59 % 1020,0 hPa 0,0 l/m 0,97 h 0,00 h 894 W/m 15,1 km/h (3 Bft) 97,72 %
16.06.2019 15:00 22,5 C 22,8 C 22,5 C 64 % 1020,3 hPa 0,0 l/m 0,23 h 0,00 h 349 W/m 13,1 km/h (3 Bft) 97,22 %
16.06.2019 16:00 22,3 C 22,6 C 21,8 C 66 % 1020,3 hPa 0,0 l/m 0,53 h 0,00 h 438 W/m 11,1 km/h (2 Bft) 96,65 %
16.06.2019 17:00 23,7 C 23,2 C 22,4 C 60 % 1020,1 hPa 0,0 l/m 0,90 h 0,00 h 584 W/m 14,2 km/h (3 Bft) 99,36 %
16.06.2019 18:00 24,1 C 23,1 C 22,0 C 58 % 1020,1 hPa 0,0 l/m 0,87 h 0,00 h 408 W/m 10,7 km/h (2 Bft) 97,86 %
16.06.2019 19:00 23,5 C 22,5 C 21,4 C 58 % 1020,0 hPa 0,0 l/m 0,63 h 0,00 h 218 W/m 10,1 km/h (2 Bft) 95,59 %
16.06.2019 20:00 22,1 C 20,5 C 19,8 C 62 % 1020,3 hPa 0,0 l/m 0,00 h 0,00 h 35 W/m 5,0 km/h (1 Bft) 99,57 %
16.06.2019 21:00 20,7 C 18,6 C 17,8 C 67 % 1020,5 hPa 0,0 l/m 0,00 h 0,00 h 13 W/m 2,7 km/h (1 Bft) 97,29 %
16.06.2019 22:00 18,9 C 16,1 C 15,1 C 73 % 1020,9 hPa 0,0 l/m 0,00 h 0,00 h 0 W/m 0,1 km/h (0 Bft) 94,85 %
16.06.2019 23:00 17,1 C 14,7 C 13,9 C 79 % 1021,0 hPa 0,0 l/m 0,00 h 0,00 h 0 W/m 0,0 km/h (0 Bft) 97,19 %
Min-Datum _ 14.06.19 14.06.19 14.06.19 14.06.19 12.06.19 - - - - 10.06.19 14.06.19
_ Min-Zeit 03:58 03:20 03:16 14:10 09:34 - - - - 01:16 00:02
Minimum _ 12,1 C 10,0 C 10,0 C 47 % 1006,8 hPa - - - - 0,0 km/h (0 Bft) 10,00 %
Max-Datum _ 14.06.19 14.06.19 14.06.19 15.06.19 16.06.19 12.06.19 12.06.19 11.06.19 16.06.19 13.06.19 10.06.19
_ Max-Zeit 17:40 13:42 14:38 09:14 23:28 12:46 17:10 05:10 13:00 12:18 00:18
Maximum _ 28,9 C 33,3 C 36,7 C 99 % 1021,1 hPa 3,8 l/m 0,08 h 0,08 h 1192 W/m 51,5 km/h
S (7 Bft)
100,00 %
Durchschnitt _ 18,7 C 18,9 C 18,3 C 75 % 1013,2 hPa #14,8 l/m #44:02 h #12:26 h 319 W/m 8,3 km/h (2 Bft) 97,53 %
© 2019 W. Hausmann